sensor_id;sensor_type;location;lat;lon;timestamp;P1;durP1;ratioP1;P2;durP2;ratioP2
63975;SDS011;50167;47.958;21.780;2022-10-15T16:02:53;51.03;;;27.07;;
63975;SDS011;50167;47.958;21.780;2022-10-15T16:05:19;42.57;;;26.97;;
63975;SDS011;50167;47.958;21.780;2022-10-15T16:07:47;32.83;;;22.20;;
63975;SDS011;50167;47.958;21.780;2022-10-15T16:10:13;34.77;;;21.67;;
63975;SDS011;50167;47.958;21.780;2022-10-15T16:15:41;38.37;;;26.67;;
63975;SDS011;50167;47.958;21.780;2022-10-15T16:18:08;35.20;;;24.17;;
63975;SDS011;50167;47.958;21.780;2022-10-15T16:20:35;28.57;;;20.00;;
63975;SDS011;50167;47.958;21.780;2022-10-15T16:23:03;23.37;;;16.50;;
63975;SDS011;50167;47.958;21.780;2022-10-15T16:25:29;29.50;;;16.83;;
63975;SDS011;50167;47.958;21.780;2022-10-15T16:27:55;19.67;;;15.50;;
63975;SDS011;50167;47.958;21.780;2022-10-15T16:30:26;26.57;;;17.92;;
63975;SDS011;50167;47.958;21.780;2022-10-15T16:32:52;28.13;;;17.93;;
63975;SDS011;50167;47.958;21.780;2022-10-15T16:35:18;29.47;;;20.17;;
63975;SDS011;50167;47.958;21.780;2022-10-15T16:37:44;39.70;;;25.20;;
63975;SDS011;50167;47.958;21.780;2022-10-15T16:40:10;43.70;;;26.17;;
63975;SDS011;50167;47.958;21.780;2022-10-15T16:42:37;50.83;;;25.27;;
63975;SDS011;50167;47.958;21.780;2022-10-15T16:45:03;41.03;;;22.50;;
63975;SDS011;50167;47.958;21.780;2022-10-15T16:47:30;42.20;;;25.13;;
63975;SDS011;50167;47.958;21.780;2022-10-15T16:49:56;33.40;;;21.50;;
63975;SDS011;50167;47.958;21.780;2022-10-15T16:52:22;36.73;;;21.83;;
63975;SDS011;50167;47.958;21.780;2022-10-15T16:54:48;33.97;;;21.17;;
63975;SDS011;50167;47.958;21.780;2022-10-15T16:57:14;41.20;;;20.23;;
63975;SDS011;50167;47.958;21.780;2022-10-15T16:59:40;37.13;;;22.27;;
63975;SDS011;50167;47.958;21.780;2022-10-15T17:02:07;39.27;;;23.10;;
63975;SDS011;50167;47.958;21.780;2022-10-15T17:04:34;38.90;;;20.83;;
63975;SDS011;50167;47.958;21.780;2022-10-15T17:07:00;33.23;;;20.47;;
63975;SDS011;50167;47.958;21.780;2022-10-15T17:09:27;40.07;;;21.50;;
63975;SDS011;50167;47.958;21.780;2022-10-15T17:11:53;40.20;;;25.97;;
63975;SDS011;50167;47.958;21.780;2022-10-15T17:14:19;45.27;;;29.13;;
63975;SDS011;50167;47.958;21.780;2022-10-15T17:16:50;65.87;;;35.00;;
63975;SDS011;50167;47.958;21.780;2022-10-15T17:19:20;66.22;;;36.38;;
63975;SDS011;50167;47.958;21.780;2022-10-15T17:21:49;78.50;;;37.77;;
63975;SDS011;50167;47.958;21.780;2022-10-15T17:24:19;66.03;;;32.60;;
63975;SDS011;50167;47.958;21.780;2022-10-15T17:26:45;62.53;;;31.57;;
63975;SDS011;50167;47.958;21.780;2022-10-15T17:29:17;55.53;;;30.87;;
63975;SDS011;50167;47.958;21.780;2022-10-15T17:31:46;79.37;;;32.97;;
63975;SDS011;50167;47.958;21.780;2022-10-15T17:34:13;88.10;;;44.23;;
63975;SDS011;50167;47.958;21.780;2022-10-15T17:36:43;107.90;;;52.30;;
63975;SDS011;50167;47.958;21.780;2022-10-15T17:41:42;120.25;;;55.75;;
63975;SDS011;50167;47.958;21.780;2022-10-15T17:44:09;99.57;;;49.27;;
63975;SDS011;50167;47.958;21.780;2022-10-15T17:46:36;89.90;;;43.03;;
63975;SDS011;50167;47.958;21.780;2022-10-15T17:49:03;64.60;;;32.47;;
63975;SDS011;50167;47.958;21.780;2022-10-15T17:51:31;55.87;;;31.50;;
63975;SDS011;50167;47.958;21.780;2022-10-15T17:53:59;71.27;;;34.47;;
63975;SDS011;50167;47.958;21.780;2022-10-15T17:56:26;64.97;;;34.20;;
63975;SDS011;50167;47.958;21.780;2022-10-15T17:58:56;71.45;;;36.68;;
63975;SDS011;50167;47.958;21.780;2022-10-15T18:01:25;64.63;;;33.37;;
63975;SDS011;50167;47.958;21.780;2022-10-15T18:03:57;66.10;;;36.97;;
63975;SDS011;50167;47.958;21.780;2022-10-15T18:06:24;113.70;;;52.57;;
63975;SDS011;50167;47.958;21.780;2022-10-15T18:08:52;139.80;;;63.07;;
63975;SDS011;50167;47.958;21.780;2022-10-15T18:11:21;112.57;;;53.07;;
63975;SDS011;50167;47.958;21.780;2022-10-15T18:13:53;87.77;;;45.83;;
63975;SDS011;50167;47.958;21.780;2022-10-15T18:16:20;58.80;;;34.20;;
63975;SDS011;50167;47.958;21.780;2022-10-15T18:18:46;47.37;;;30.30;;
63975;SDS011;50167;47.958;21.780;2022-10-15T18:21:14;41.90;;;28.83;;
63975;SDS011;50167;47.958;21.780;2022-10-15T18:23:43;38.00;;;26.40;;
63975;SDS011;50167;47.958;21.780;2022-10-15T18:28:50;38.73;;;24.77;;
63975;SDS011;50167;47.958;21.780;2022-10-15T18:31:18;35.97;;;24.10;;
63975;SDS011;50167;47.958;21.780;2022-10-15T18:33:46;34.97;;;22.83;;
63975;SDS011;50167;47.958;21.780;2022-10-15T18:36:23;35.83;;;22.47;;
63975;SDS011;50167;47.958;21.780;2022-10-15T18:38:55;44.87;;;24.80;;
63975;SDS011;50167;47.958;21.780;2022-10-15T18:43:58;47.97;;;25.80;;
63975;SDS011;50167;47.958;21.780;2022-10-15T18:46:30;42.53;;;27.20;;
63975;SDS011;50167;47.958;21.780;2022-10-15T18:48:59;41.27;;;27.83;;
63975;SDS011;50167;47.958;21.780;2022-10-15T18:51:26;45.47;;;26.87;;
63975;SDS011;50167;47.958;21.780;2022-10-15T18:53:53;48.17;;;27.73;;
63975;SDS011;50167;47.958;21.780;2022-10-15T18:56:19;44.97;;;26.67;;
63975;SDS011;50167;47.958;21.780;2022-10-15T18:58:46;44.37;;;23.77;;
63975;SDS011;50167;47.958;21.780;2022-10-15T19:04:13;41.80;;;23.90;;
63975;SDS011;50167;47.958;21.780;2022-10-15T19:06:40;41.33;;;25.53;;
63975;SDS011;50167;47.958;21.780;2022-10-15T19:09:10;36.23;;;24.43;;
63975;SDS011;50167;47.958;21.780;2022-10-15T19:11:39;44.60;;;25.17;;
63975;SDS011;50167;47.958;21.780;2022-10-15T19:14:07;40.87;;;24.53;;
63975;SDS011;50167;47.958;21.780;2022-10-15T19:16:34;34.67;;;24.50;;
63975;SDS011;50167;47.958;21.780;2022-10-15T19:19:02;35.60;;;24.73;;
63975;SDS011;50167;47.958;21.780;2022-10-15T19:21:29;37.33;;;24.47;;
63975;SDS011;50167;47.958;21.780;2022-10-15T19:23:56;41.43;;;26.73;;
63975;SDS011;50167;47.958;21.780;2022-10-15T19:26:23;40.03;;;24.63;;
63975;SDS011;50167;47.958;21.780;2022-10-15T19:28:50;36.63;;;26.40;;
63975;SDS011;50167;47.958;21.780;2022-10-15T19:31:28;36.87;;;23.17;;
63975;SDS011;50167;47.958;21.780;2022-10-15T19:33:52;35.30;;;22.77;;
63975;SDS011;50167;47.958;21.780;2022-10-15T19:36:20;40.00;;;21.27;;
63975;SDS011;50167;47.958;21.780;2022-10-15T19:38:48;27.77;;;18.40;;
63975;SDS011;50167;47.958;21.780;2022-10-15T19:41:15;27.73;;;17.57;;
63975;SDS011;50167;47.958;21.780;2022-10-15T19:43:43;26.13;;;16.70;;
63975;SDS011;50167;47.958;21.780;2022-10-15T19:46:09;34.67;;;19.83;;
63975;SDS011;50167;47.958;21.780;2022-10-15T19:48:36;26.03;;;19.03;;
63975;SDS011;50167;47.958;21.780;2022-10-15T19:51:03;29.43;;;20.40;;
63975;SDS011;50167;47.958;21.780;2022-10-15T19:53:31;33.83;;;20.63;;
63975;SDS011;50167;47.958;21.780;2022-10-15T19:55:59;37.33;;;21.60;;
63975;SDS011;50167;47.958;21.780;2022-10-15T19:58:28;36.70;;;24.52;;
63975;SDS011;50167;47.958;21.780;2022-10-15T20:00:55;47.07;;;30.17;;
63975;SDS011;50167;47.958;21.780;2022-10-15T20:03:22;49.47;;;28.77;;
63975;SDS011;50167;47.958;21.780;2022-10-15T20:05:51;38.20;;;24.80;;
63975;SDS011;50167;47.958;21.780;2022-10-15T20:08:18;38.47;;;25.10;;
63975;SDS011;50167;47.958;21.780;2022-10-15T20:10:45;38.77;;;24.37;;
63975;SDS011;50167;47.958;21.780;2022-10-15T20:13:15;35.73;;;23.50;;
63975;SDS011;50167;47.958;21.780;2022-10-15T20:15:44;43.47;;;22.83;;
63975;SDS011;50167;47.958;21.780;2022-10-15T20:18:13;35.77;;;22.47;;
63975;SDS011;50167;47.958;21.780;2022-10-15T20:20:41;32.57;;;22.63;;
63975;SDS011;50167;47.958;21.780;2022-10-15T20:23:10;36.17;;;22.60;;
63975;SDS011;50167;47.958;21.780;2022-10-15T20:25:39;48.17;;;26.60;;
63975;SDS011;50167;47.958;21.780;2022-10-15T20:28:07;56.83;;;33.87;;
63975;SDS011;50167;47.958;21.780;2022-10-15T20:30:37;40.93;;;28.73;;
63975;SDS011;50167;47.958;21.780;2022-10-15T20:33:05;34.63;;;23.77;;
63975;SDS011;50167;47.958;21.780;2022-10-15T20:35:37;33.13;;;22.10;;
63975;SDS011;50167;47.958;21.780;2022-10-15T20:38:02;32.73;;;21.87;;
63975;SDS011;50167;47.958;21.780;2022-10-15T20:40:29;32.87;;;21.33;;
63975;SDS011;50167;47.958;21.780;2022-10-15T20:42:55;32.50;;;21.37;;
63975;SDS011;50167;47.958;21.780;2022-10-15T20:45:21;36.60;;;22.40;;
63975;SDS011;50167;47.958;21.780;2022-10-15T20:47:50;39.00;;;25.13;;
63975;SDS011;50167;47.958;21.780;2022-10-15T20:50:22;42.20;;;27.30;;
63975;SDS011;50167;47.958;21.780;2022-10-15T20:52:54;44.83;;;28.03;;
63975;SDS011;50167;47.958;21.780;2022-10-15T20:55:22;48.83;;;31.67;;
63975;SDS011;50167;47.958;21.780;2022-10-15T20:57:49;61.87;;;33.87;;
63975;SDS011;50167;47.958;21.780;2022-10-15T21:00:16;66.73;;;37.57;;
63975;SDS011;50167;47.958;21.780;2022-10-15T21:02:42;62.77;;;34.30;;
63975;SDS011;50167;47.958;21.780;2022-10-15T21:05:08;63.00;;;34.57;;
63975;SDS011;50167;47.958;21.780;2022-10-15T21:07:35;51.17;;;30.30;;
63975;SDS011;50167;47.958;21.780;2022-10-15T21:10:01;61.07;;;32.70;;
63975;SDS011;50167;47.958;21.780;2022-10-15T21:12:28;51.90;;;32.63;;
63975;SDS011;50167;47.958;21.780;2022-10-15T21:14:54;52.37;;;32.33;;
63975;SDS011;50167;47.958;21.780;2022-10-15T21:17:21;52.03;;;32.27;;
63975;SDS011;50167;47.958;21.780;2022-10-15T21:19:47;48.07;;;28.70;;
63975;SDS011;50167;47.958;21.780;2022-10-15T21:22:13;42.63;;;27.33;;
63975;SDS011;50167;47.958;21.780;2022-10-15T21:24:39;34.73;;;23.33;;
63975;SDS011;50167;47.958;21.780;2022-10-15T21:27:05;43.37;;;22.87;;
63975;SDS011;50167;47.958;21.780;2022-10-15T21:29:33;32.00;;;18.87;;
63975;SDS011;50167;47.958;21.780;2022-10-15T21:31:59;32.37;;;21.73;;
63975;SDS011;50167;47.958;21.780;2022-10-15T21:34:25;30.47;;;18.93;;
63975;SDS011;50167;47.958;21.780;2022-10-15T21:36:54;29.70;;;20.23;;
63975;SDS011;50167;47.958;21.780;2022-10-15T21:39:21;31.40;;;20.07;;
63975;SDS011;50167;47.958;21.780;2022-10-15T21:41:47;28.87;;;20.63;;
63975;SDS011;50167;47.958;21.780;2022-10-15T21:44:13;29.60;;;19.57;;
63975;SDS011;50167;47.958;21.780;2022-10-15T21:46:40;30.37;;;19.13;;
63975;SDS011;50167;47.958;21.780;2022-10-15T21:49:07;31.33;;;19.43;;
63975;SDS011;50167;47.958;21.780;2022-10-15T21:51:34;32.83;;;18.83;;
63975;SDS011;50167;47.958;21.780;2022-10-15T21:54:03;27.30;;;18.23;;
63975;SDS011;50167;47.958;21.780;2022-10-15T21:56:31;36.20;;;18.40;;
63975;SDS011;50167;47.958;21.780;2022-10-15T21:58:58;27.90;;;19.70;;
63975;SDS011;50167;47.958;21.780;2022-10-15T22:01:25;33.13;;;19.43;;
63975;SDS011;50167;47.958;21.780;2022-10-15T22:04:01;25.80;;;18.27;;
63975;SDS011;50167;47.958;21.780;2022-10-15T22:06:31;29.82;;;17.15;;
63975;SDS011;50167;47.958;21.780;2022-10-15T22:08:58;34.70;;;19.53;;
63975;SDS011;50167;47.958;21.780;2022-10-15T22:11:26;33.73;;;19.93;;
63975;SDS011;50167;47.958;21.780;2022-10-15T22:13:56;29.80;;;18.12;;
63975;SDS011;50167;47.958;21.780;2022-10-15T22:16:26;31.80;;;20.02;;
63975;SDS011;50167;47.958;21.780;2022-10-15T22:18:54;32.73;;;18.67;;
63975;SDS011;50167;47.958;21.780;2022-10-15T22:21:25;26.47;;;18.70;;
63975;SDS011;50167;47.958;21.780;2022-10-15T22:23:59;27.97;;;17.87;;
63975;SDS011;50167;47.958;21.780;2022-10-15T22:26:29;25.43;;;17.10;;
63975;SDS011;50167;47.958;21.780;2022-10-15T22:28:59;28.97;;;17.73;;
63975;SDS011;50167;47.958;21.780;2022-10-15T22:31:27;28.10;;;19.27;;
63975;SDS011;50167;47.958;21.780;2022-10-15T22:33:54;24.47;;;17.10;;
63975;SDS011;50167;47.958;21.780;2022-10-15T22:36:28;29.73;;;19.40;;
63975;SDS011;50167;47.958;21.780;2022-10-15T22:38:54;35.60;;;20.50;;
63975;SDS011;50167;47.958;21.780;2022-10-15T22:41:26;30.60;;;20.43;;
63975;SDS011;50167;47.958;21.780;2022-10-15T22:43:54;30.63;;;17.30;;
63975;SDS011;50167;47.958;21.780;2022-10-15T22:46:21;32.03;;;18.77;;
63975;SDS011;50167;47.958;21.780;2022-10-15T22:48:47;27.10;;;18.27;;
63975;SDS011;50167;47.958;21.780;2022-10-15T22:51:13;26.50;;;18.87;;
63975;SDS011;50167;47.958;21.780;2022-10-15T22:53:41;31.53;;;18.97;;
63975;SDS011;50167;47.958;21.780;2022-10-15T22:56:12;29.13;;;18.93;;
63975;SDS011;50167;47.958;21.780;2022-10-15T22:58:41;25.10;;;18.73;;
63975;SDS011;50167;47.958;21.780;2022-10-15T23:01:13;26.30;;;18.37;;
63975;SDS011;50167;47.958;21.780;2022-10-15T23:03:40;27.93;;;17.75;;
63975;SDS011;50167;47.958;21.780;2022-10-15T23:06:09;27.90;;;16.00;;
63975;SDS011;50167;47.958;21.780;2022-10-15T23:08:37;31.50;;;17.63;;
63975;SDS011;50167;47.958;21.780;2022-10-15T23:11:04;25.67;;;16.63;;
63975;SDS011;50167;47.958;21.780;2022-10-15T23:13:36;31.60;;;18.47;;
63975;SDS011;50167;47.958;21.780;2022-10-15T23:16:05;28.17;;;18.20;;
63975;SDS011;50167;47.958;21.780;2022-10-15T23:18:37;29.53;;;18.53;;
63975;SDS011;50167;47.958;21.780;2022-10-15T23:21:05;28.37;;;18.90;;
63975;SDS011;50167;47.958;21.780;2022-10-15T23:23:41;25.97;;;17.50;;
63975;SDS011;50167;47.958;21.780;2022-10-15T23:26:12;23.80;;;16.50;;
63975;SDS011;50167;47.958;21.780;2022-10-15T23:28:41;24.47;;;15.97;;
63975;SDS011;50167;47.958;21.780;2022-10-15T23:31:22;23.50;;;17.27;;
63975;SDS011;50167;47.958;21.780;2022-10-15T23:33:52;28.73;;;18.73;;
63975;SDS011;50167;47.958;21.780;2022-10-15T23:36:20;26.37;;;18.73;;
63975;SDS011;50167;47.958;21.780;2022-10-15T23:38:47;25.27;;;17.87;;
63975;SDS011;50167;47.958;21.780;2022-10-15T23:41:16;25.90;;;16.93;;
63975;SDS011;50167;47.958;21.780;2022-10-15T23:43:42;20.37;;;14.90;;
63975;SDS011;50167;47.958;21.780;2022-10-15T23:46:09;30.57;;;14.57;;
63975;SDS011;50167;47.958;21.780;2022-10-15T23:48:36;24.80;;;16.33;;
63975;SDS011;50167;47.958;21.780;2022-10-15T23:51:09;23.13;;;15.47;;
63975;SDS011;50167;47.958;21.780;2022-10-15T23:53:43;23.98;;;16.55;;
63975;SDS011;50167;47.958;21.780;2022-10-15T23:56:10;27.67;;;17.70;;
63975;SDS011;50167;47.958;21.780;2022-10-15T23:58:36;25.87;;;16.50;;
